sensor_id;sensor_type;location;lat;lon;timestamp;P1;durP1;ratioP1;P2;durP2;ratioP2
23472;SDS011;11909;52.516;13.564;2023-02-08T00:02:21;54.22;;;27.45;;
23472;SDS011;11909;52.516;13.564;2023-02-08T00:04:49;44.30;;;26.13;;
23472;SDS011;11909;52.516;13.564;2023-02-08T00:07:17;48.08;;;29.40;;
23472;SDS011;11909;52.516;13.564;2023-02-08T00:09:44;47.90;;;28.83;;
23472;SDS011;11909;52.516;13.564;2023-02-08T00:12:12;50.00;;;28.20;;
23472;SDS011;11909;52.516;13.564;2023-02-08T00:14:40;49.85;;;29.77;;
23472;SDS011;11909;52.516;13.564;2023-02-08T00:17:09;46.10;;;27.38;;
23472;SDS011;11909;52.516;13.564;2023-02-08T00:19:37;52.60;;;30.00;;
23472;SDS011;11909;52.516;13.564;2023-02-08T00:22:04;46.95;;;28.10;;
23472;SDS011;11909;52.516;13.564;2023-02-08T00:24:32;48.95;;;27.85;;
23472;SDS011;11909;52.516;13.564;2023-02-08T00:27:00;51.22;;;27.80;;
23472;SDS011;11909;52.516;13.564;2023-02-08T00:29:27;47.35;;;28.52;;
23472;SDS011;11909;52.516;13.564;2023-02-08T00:31:55;50.70;;;30.05;;
23472;SDS011;11909;52.516;13.564;2023-02-08T00:34:24;47.38;;;28.52;;
23472;SDS011;11909;52.516;13.564;2023-02-08T00:36:52;50.85;;;29.17;;
23472;SDS011;11909;52.516;13.564;2023-02-08T00:39:20;51.45;;;28.13;;
23472;SDS011;11909;52.516;13.564;2023-02-08T00:41:49;52.38;;;28.67;;
23472;SDS011;11909;52.516;13.564;2023-02-08T00:44:17;52.38;;;28.05;;
23472;SDS011;11909;52.516;13.564;2023-02-08T00:46:45;53.55;;;30.17;;
23472;SDS011;11909;52.516;13.564;2023-02-08T00:49:13;54.85;;;29.98;;
23472;SDS011;11909;52.516;13.564;2023-02-08T00:51:42;49.63;;;29.35;;
23472;SDS011;11909;52.516;13.564;2023-02-08T00:54:11;52.65;;;30.20;;
23472;SDS011;11909;52.516;13.564;2023-02-08T00:56:40;51.28;;;28.45;;
23472;SDS011;11909;52.516;13.564;2023-02-08T00:59:08;50.88;;;28.75;;
23472;SDS011;11909;52.516;13.564;2023-02-08T01:01:36;54.63;;;29.42;;
23472;SDS011;11909;52.516;13.564;2023-02-08T01:04:05;52.33;;;29.05;;
23472;SDS011;11909;52.516;13.564;2023-02-08T01:06:33;47.95;;;28.42;;
23472;SDS011;11909;52.516;13.564;2023-02-08T01:09:02;51.92;;;29.33;;
23472;SDS011;11909;52.516;13.564;2023-02-08T01:11:30;54.53;;;29.42;;
23472;SDS011;11909;52.516;13.564;2023-02-08T01:13:58;54.88;;;30.33;;
23472;SDS011;11909;52.516;13.564;2023-02-08T01:16:26;56.72;;;30.25;;
23472;SDS011;11909;52.516;13.564;2023-02-08T01:21:25;54.78;;;28.90;;
23472;SDS011;11909;52.516;13.564;2023-02-08T01:23:54;51.50;;;29.75;;
23472;SDS011;11909;52.516;13.564;2023-02-08T01:26:23;51.97;;;29.42;;
23472;SDS011;11909;52.516;13.564;2023-02-08T01:28:52;51.08;;;27.73;;
23472;SDS011;11909;52.516;13.564;2023-02-08T01:31:22;46.63;;;29.05;;
23472;SDS011;11909;52.516;13.564;2023-02-08T01:33:50;56.15;;;28.05;;
23472;SDS011;11909;52.516;13.564;2023-02-08T01:36:18;56.33;;;28.65;;
23472;SDS011;11909;52.516;13.564;2023-02-08T01:38:46;48.13;;;26.58;;
23472;SDS011;11909;52.516;13.564;2023-02-08T01:41:16;50.38;;;28.73;;
23472;SDS011;11909;52.516;13.564;2023-02-08T01:43:59;52.22;;;30.90;;
23472;SDS011;11909;52.516;13.564;2023-02-08T01:46:30;48.63;;;29.35;;
23472;SDS011;11909;52.516;13.564;2023-02-08T01:48:59;56.22;;;31.85;;
23472;SDS011;11909;52.516;13.564;2023-02-08T01:51:31;53.33;;;30.13;;
23472;SDS011;11909;52.516;13.564;2023-02-08T01:54:02;51.10;;;30.08;;
23472;SDS011;11909;52.516;13.564;2023-02-08T01:56:33;54.90;;;30.08;;
23472;SDS011;11909;52.516;13.564;2023-02-08T01:59:05;50.75;;;28.08;;
23472;SDS011;11909;52.516;13.564;2023-02-08T02:01:37;52.25;;;30.27;;
23472;SDS011;11909;52.516;13.564;2023-02-08T02:04:06;52.00;;;28.77;;
23472;SDS011;11909;52.516;13.564;2023-02-08T02:06:35;51.70;;;29.35;;
23472;SDS011;11909;52.516;13.564;2023-02-08T02:09:09;49.35;;;28.17;;
23472;SDS011;11909;52.516;13.564;2023-02-08T02:11:40;51.42;;;29.77;;
23472;SDS011;11909;52.516;13.564;2023-02-08T02:14:11;57.08;;;30.45;;
23472;SDS011;11909;52.516;13.564;2023-02-08T02:19:09;54.60;;;27.17;;
23472;SDS011;11909;52.516;13.564;2023-02-08T02:21:48;52.30;;;27.95;;
23472;SDS011;11909;52.516;13.564;2023-02-08T02:27:49;52.20;;;27.70;;
23472;SDS011;11909;52.516;13.564;2023-02-08T02:36:22;51.38;;;27.73;;
23472;SDS011;11909;52.516;13.564;2023-02-08T02:41:34;47.28;;;26.80;;
23472;SDS011;11909;52.516;13.564;2023-02-08T02:44:25;50.65;;;25.83;;
23472;SDS011;11909;52.516;13.564;2023-02-08T02:47:04;44.47;;;25.30;;
23472;SDS011;11909;52.516;13.564;2023-02-08T02:49:38;39.92;;;22.88;;
23472;SDS011;11909;52.516;13.564;2023-02-08T02:52:15;36.75;;;21.73;;
23472;SDS011;11909;52.516;13.564;2023-02-08T02:54:48;40.38;;;21.80;;
23472;SDS011;11909;52.516;13.564;2023-02-08T02:57:20;37.95;;;21.70;;
23472;SDS011;11909;52.516;13.564;2023-02-08T02:59:50;41.47;;;22.55;;
23472;SDS011;11909;52.516;13.564;2023-02-08T03:02:18;38.03;;;20.30;;
23472;SDS011;11909;52.516;13.564;2023-02-08T03:04:49;37.58;;;19.88;;
23472;SDS011;11909;52.516;13.564;2023-02-08T03:07:23;34.83;;;19.02;;
23472;SDS011;11909;52.516;13.564;2023-02-08T03:10:14;30.67;;;17.88;;
23472;SDS011;11909;52.516;13.564;2023-02-08T03:12:54;35.60;;;18.02;;
23472;SDS011;11909;52.516;13.564;2023-02-08T03:15:28;37.85;;;19.83;;
23472;SDS011;11909;52.516;13.564;2023-02-08T03:18:10;35.38;;;19.20;;
23472;SDS011;11909;52.516;13.564;2023-02-08T03:20:50;40.83;;;20.50;;
23472;SDS011;11909;52.516;13.564;2023-02-08T03:23:27;35.47;;;19.52;;
23472;SDS011;11909;52.516;13.564;2023-02-08T03:25:58;34.13;;;18.75;;
23472;SDS011;11909;52.516;13.564;2023-02-08T03:28:34;29.13;;;17.63;;
23472;SDS011;11909;52.516;13.564;2023-02-08T03:31:08;36.33;;;19.08;;
23472;SDS011;11909;52.516;13.564;2023-02-08T03:33:41;39.08;;;18.73;;
23472;SDS011;11909;52.516;13.564;2023-02-08T03:36:20;37.22;;;18.30;;
23472;SDS011;11909;52.516;13.564;2023-02-08T03:38:52;32.05;;;17.40;;
23472;SDS011;11909;52.516;13.564;2023-02-08T03:41:21;30.13;;;16.58;;
23472;SDS011;11909;52.516;13.564;2023-02-08T03:43:55;29.70;;;17.55;;
23472;SDS011;11909;52.516;13.564;2023-02-08T03:46:25;32.15;;;17.88;;
23472;SDS011;11909;52.516;13.564;2023-02-08T03:48:57;38.15;;;19.83;;
23472;SDS011;11909;52.516;13.564;2023-02-08T03:51:30;32.25;;;18.55;;
23472;SDS011;11909;52.516;13.564;2023-02-08T03:54:03;31.13;;;17.52;;
23472;SDS011;11909;52.516;13.564;2023-02-08T03:56:34;34.70;;;19.08;;
23472;SDS011;11909;52.516;13.564;2023-02-08T03:59:08;31.60;;;18.00;;
23472;SDS011;11909;52.516;13.564;2023-02-08T04:01:42;44.20;;;19.65;;
23472;SDS011;11909;52.516;13.564;2023-02-08T04:04:12;29.65;;;17.90;;
23472;SDS011;11909;52.516;13.564;2023-02-08T04:06:43;34.25;;;19.92;;
23472;SDS011;11909;52.516;13.564;2023-02-08T04:09:10;37.22;;;19.25;;
23472;SDS011;11909;52.516;13.564;2023-02-08T04:11:38;32.88;;;17.60;;
23472;SDS011;11909;52.516;13.564;2023-02-08T04:14:06;33.67;;;18.10;;
23472;SDS011;11909;52.516;13.564;2023-02-08T04:16:33;33.83;;;19.42;;
23472;SDS011;11909;52.516;13.564;2023-02-08T04:19:01;35.08;;;19.30;;
23472;SDS011;11909;52.516;13.564;2023-02-08T04:21:29;30.17;;;17.23;;
23472;SDS011;11909;52.516;13.564;2023-02-08T04:23:58;33.20;;;18.52;;
23472;SDS011;11909;52.516;13.564;2023-02-08T04:26:26;30.38;;;17.05;;
23472;SDS011;11909;52.516;13.564;2023-02-08T04:28:53;32.10;;;18.05;;
23472;SDS011;11909;52.516;13.564;2023-02-08T04:31:21;29.42;;;17.73;;
23472;SDS011;11909;52.516;13.564;2023-02-08T04:33:49;31.42;;;18.02;;
23472;SDS011;11909;52.516;13.564;2023-02-08T04:36:17;32.17;;;18.10;;
23472;SDS011;11909;52.516;13.564;2023-02-08T04:38:45;31.45;;;18.40;;
23472;SDS011;11909;52.516;13.564;2023-02-08T04:41:14;37.33;;;20.50;;
23472;SDS011;11909;52.516;13.564;2023-02-08T04:43:41;36.45;;;19.48;;
23472;SDS011;11909;52.516;13.564;2023-02-08T04:46:09;32.40;;;17.92;;
23472;SDS011;11909;52.516;13.564;2023-02-08T04:48:37;33.55;;;19.13;;
23472;SDS011;11909;52.516;13.564;2023-02-08T04:51:05;39.28;;;20.05;;
23472;SDS011;11909;52.516;13.564;2023-02-08T04:53:32;31.95;;;18.35;;
23472;SDS011;11909;52.516;13.564;2023-02-08T04:56:01;36.58;;;19.92;;
23472;SDS011;11909;52.516;13.564;2023-02-08T04:58:30;34.67;;;19.23;;
23472;SDS011;11909;52.516;13.564;2023-02-08T05:00:57;40.20;;;20.80;;
23472;SDS011;11909;52.516;13.564;2023-02-08T05:03:25;40.53;;;20.48;;
23472;SDS011;11909;52.516;13.564;2023-02-08T05:05:56;41.47;;;22.13;;
23472;SDS011;11909;52.516;13.564;2023-02-08T05:08:24;46.00;;;23.48;;
23472;SDS011;11909;52.516;13.564;2023-02-08T05:10:52;38.63;;;21.30;;
23472;SDS011;11909;52.516;13.564;2023-02-08T05:13:19;36.05;;;18.52;;
23472;SDS011;11909;52.516;13.564;2023-02-08T05:15:49;36.92;;;20.05;;
23472;SDS011;11909;52.516;13.564;2023-02-08T05:18:16;42.17;;;20.67;;
23472;SDS011;11909;52.516;13.564;2023-02-08T05:20:44;38.92;;;21.67;;
23472;SDS011;11909;52.516;13.564;2023-02-08T05:23:12;41.90;;;20.88;;
23472;SDS011;11909;52.516;13.564;2023-02-08T05:25:39;40.17;;;20.98;;
23472;SDS011;11909;52.516;13.564;2023-02-08T05:28:07;36.78;;;20.48;;
23472;SDS011;11909;52.516;13.564;2023-02-08T05:30:36;42.75;;;22.30;;
23472;SDS011;11909;52.516;13.564;2023-02-08T05:33:06;38.58;;;20.70;;
23472;SDS011;11909;52.516;13.564;2023-02-08T05:35:33;40.80;;;21.25;;
23472;SDS011;11909;52.516;13.564;2023-02-08T05:38:01;37.45;;;20.77;;
23472;SDS011;11909;52.516;13.564;2023-02-08T05:40:29;37.25;;;20.20;;
23472;SDS011;11909;52.516;13.564;2023-02-08T05:42:57;37.75;;;19.85;;
23472;SDS011;11909;52.516;13.564;2023-02-08T05:45:24;38.65;;;21.80;;
23472;SDS011;11909;52.516;13.564;2023-02-08T05:47:52;37.95;;;21.15;;
23472;SDS011;11909;52.516;13.564;2023-02-08T05:50:21;42.67;;;20.63;;
23472;SDS011;11909;52.516;13.564;2023-02-08T05:52:49;38.92;;;22.35;;
23472;SDS011;11909;52.516;13.564;2023-02-08T05:55:16;39.13;;;21.60;;
23472;SDS011;11909;52.516;13.564;2023-02-08T05:57:44;40.25;;;22.67;;
23472;SDS011;11909;52.516;13.564;2023-02-08T06:00:12;43.55;;;22.42;;
23472;SDS011;11909;52.516;13.564;2023-02-08T06:02:41;44.30;;;22.25;;
23472;SDS011;11909;52.516;13.564;2023-02-08T06:05:08;45.00;;;23.25;;
23472;SDS011;11909;52.516;13.564;2023-02-08T06:07:38;42.78;;;22.52;;
23472;SDS011;11909;52.516;13.564;2023-02-08T06:10:05;42.45;;;22.42;;
23472;SDS011;11909;52.516;13.564;2023-02-08T06:12:36;44.45;;;22.25;;
23472;SDS011;11909;52.516;13.564;2023-02-08T06:15:04;41.80;;;22.55;;
23472;SDS011;11909;52.516;13.564;2023-02-08T06:17:32;47.05;;;23.50;;
23472;SDS011;11909;52.516;13.564;2023-02-08T06:19:59;40.25;;;21.80;;
23472;SDS011;11909;52.516;13.564;2023-02-08T06:22:27;42.63;;;23.45;;
23472;SDS011;11909;52.516;13.564;2023-02-08T06:24:56;41.72;;;21.80;;
23472;SDS011;11909;52.516;13.564;2023-02-08T06:27:24;41.78;;;22.38;;
23472;SDS011;11909;52.516;13.564;2023-02-08T06:29:52;37.85;;;20.98;;
23472;SDS011;11909;52.516;13.564;2023-02-08T06:32:19;39.60;;;21.70;;
23472;SDS011;11909;52.516;13.564;2023-02-08T06:34:47;48.00;;;23.23;;
23472;SDS011;11909;52.516;13.564;2023-02-08T06:37:16;42.40;;;23.35;;
23472;SDS011;11909;52.516;13.564;2023-02-08T06:39:45;40.42;;;22.20;;
23472;SDS011;11909;52.516;13.564;2023-02-08T06:42:14;42.67;;;21.98;;
23472;SDS011;11909;52.516;13.564;2023-02-08T06:44:41;42.35;;;22.67;;
23472;SDS011;11909;52.516;13.564;2023-02-08T06:47:20;45.58;;;22.60;;
23472;SDS011;11909;52.516;13.564;2023-02-08T06:49:47;41.63;;;23.55;;
23472;SDS011;11909;52.516;13.564;2023-02-08T06:52:15;48.05;;;22.70;;
23472;SDS011;11909;52.516;13.564;2023-02-08T06:54:43;43.75;;;23.25;;
23472;SDS011;11909;52.516;13.564;2023-02-08T06:57:11;45.10;;;22.15;;
23472;SDS011;11909;52.516;13.564;2023-02-08T06:59:40;45.60;;;22.90;;
23472;SDS011;11909;52.516;13.564;2023-02-08T07:02:10;40.63;;;21.70;;
23472;SDS011;11909;52.516;13.564;2023-02-08T07:04:39;46.13;;;24.00;;
23472;SDS011;11909;52.516;13.564;2023-02-08T07:07:07;44.47;;;23.30;;
23472;SDS011;11909;52.516;13.564;2023-02-08T07:09:35;44.58;;;23.70;;
23472;SDS011;11909;52.516;13.564;2023-02-08T07:12:02;47.15;;;23.02;;
23472;SDS011;11909;52.516;13.564;2023-02-08T07:14:31;39.58;;;22.58;;
23472;SDS011;11909;52.516;13.564;2023-02-08T07:17:01;51.67;;;24.20;;
23472;SDS011;11909;52.516;13.564;2023-02-08T07:19:29;49.15;;;23.75;;
23472;SDS011;11909;52.516;13.564;2023-02-08T07:21:57;40.03;;;22.17;;
23472;SDS011;11909;52.516;13.564;2023-02-08T07:24:32;46.72;;;23.98;;
23472;SDS011;11909;52.516;13.564;2023-02-08T07:27:01;46.65;;;23.88;;
23472;SDS011;11909;52.516;13.564;2023-02-08T07:29:29;45.38;;;23.75;;
23472;SDS011;11909;52.516;13.564;2023-02-08T07:31:58;44.42;;;22.38;;
23472;SDS011;11909;52.516;13.564;2023-02-08T07:34:28;47.65;;;24.90;;
23472;SDS011;11909;52.516;13.564;2023-02-08T07:36:57;47.85;;;23.67;;
23472;SDS011;11909;52.516;13.564;2023-02-08T07:39:25;47.30;;;24.60;;
23472;SDS011;11909;52.516;13.564;2023-02-08T07:41:53;44.67;;;23.60;;
23472;SDS011;11909;52.516;13.564;2023-02-08T07:44:21;46.08;;;24.10;;
23472;SDS011;11909;52.516;13.564;2023-02-08T07:46:48;48.50;;;24.50;;
23472;SDS011;11909;52.516;13.564;2023-02-08T07:49:16;48.63;;;24.17;;
23472;SDS011;11909;52.516;13.564;2023-02-08T07:51:45;49.65;;;25.15;;
23472;SDS011;11909;52.516;13.564;2023-02-08T07:54:13;44.50;;;22.83;;
23472;SDS011;11909;52.516;13.564;2023-02-08T07:56:41;47.17;;;24.55;;
23472;SDS011;11909;52.516;13.564;2023-02-08T07:59:09;46.13;;;25.75;;
23472;SDS011;11909;52.516;13.564;2023-02-08T08:01:37;46.08;;;25.50;;
23472;SDS011;11909;52.516;13.564;2023-02-08T08:04:05;47.75;;;24.77;;
23472;SDS011;11909;52.516;13.564;2023-02-08T08:06:32;55.58;;;25.10;;
23472;SDS011;11909;52.516;13.564;2023-02-08T08:09:02;49.08;;;24.52;;
23472;SDS011;11909;52.516;13.564;2023-02-08T08:13:58;47.55;;;24.00;;
23472;SDS011;11909;52.516;13.564;2023-02-08T08:16:26;46.47;;;23.33;;
23472;SDS011;11909;52.516;13.564;2023-02-08T08:18:54;44.28;;;23.52;;
23472;SDS011;11909;52.516;13.564;2023-02-08T08:21:21;52.22;;;25.50;;
23472;SDS011;11909;52.516;13.564;2023-02-08T08:23:49;49.65;;;24.95;;
23472;SDS011;11909;52.516;13.564;2023-02-08T08:26:19;49.13;;;24.35;;
23472;SDS011;11909;52.516;13.564;2023-02-08T08:28:47;50.83;;;25.65;;
23472;SDS011;11909;52.516;13.564;2023-02-08T08:31:16;50.03;;;24.92;;
23472;SDS011;11909;52.516;13.564;2023-02-08T08:33:45;49.80;;;25.98;;
23472;SDS011;11909;52.516;13.564;2023-02-08T08:36:13;49.50;;;24.85;;
23472;SDS011;11909;52.516;13.564;2023-02-08T08:38:41;49.35;;;26.02;;
23472;SDS011;11909;52.516;13.564;2023-02-08T08:41:10;46.10;;;24.88;;
23472;SDS011;11909;52.516;13.564;2023-02-08T08:43:41;51.03;;;26.98;;
23472;SDS011;11909;52.516;13.564;2023-02-08T08:46:09;46.00;;;24.95;;
23472;SDS011;11909;52.516;13.564;2023-02-08T08:48:37;47.42;;;24.40;;
23472;SDS011;11909;52.516;13.564;2023-02-08T08:51:05;52.67;;;26.40;;
23472;SDS011;11909;52.516;13.564;2023-02-08T08:53:33;47.95;;;25.35;;
23472;SDS011;11909;52.516;13.564;2023-02-08T08:56:02;48.97;;;26.33;;
23472;SDS011;11909;52.516;13.564;2023-02-08T08:58:30;48.03;;;26.30;;
23472;SDS011;11909;52.516;13.564;2023-02-08T09:01:00;43.95;;;24.98;;
23472;SDS011;11909;52.516;13.564;2023-02-08T09:03:28;47.15;;;25.25;;
23472;SDS011;11909;52.516;13.564;2023-02-08T09:05:56;47.92;;;25.85;;
23472;SDS011;11909;52.516;13.564;2023-02-08T09:08:24;45.25;;;26.05;;
23472;SDS011;11909;52.516;13.564;2023-02-08T09:10:51;55.55;;;27.02;;
23472;SDS011;11909;52.516;13.564;2023-02-08T09:13:19;51.42;;;25.52;;
23472;SDS011;11909;52.516;13.564;2023-02-08T09:15:47;47.67;;;25.60;;
23472;SDS011;11909;52.516;13.564;2023-02-08T09:18:16;45.40;;;25.80;;
23472;SDS011;11909;52.516;13.564;2023-02-08T09:20:44;49.97;;;26.45;;
23472;SDS011;11909;52.516;13.564;2023-02-08T09:23:12;47.45;;;25.17;;
23472;SDS011;11909;52.516;13.564;2023-02-08T09:25:40;54.95;;;26.83;;
23472;SDS011;11909;52.516;13.564;2023-02-08T09:28:08;47.35;;;25.20;;
23472;SDS011;11909;52.516;13.564;2023-02-08T09:30:36;51.30;;;25.77;;
23472;SDS011;11909;52.516;13.564;2023-02-08T09:33:03;47.17;;;25.10;;
23472;SDS011;11909;52.516;13.564;2023-02-08T09:35:32;50.22;;;25.77;;
23472;SDS011;11909;52.516;13.564;2023-02-08T09:38:00;47.42;;;25.00;;
23472;SDS011;11909;52.516;13.564;2023-02-08T09:40:31;45.97;;;25.48;;
23472;SDS011;11909;52.516;13.564;2023-02-08T09:43:06;44.58;;;24.65;;
23472;SDS011;11909;52.516;13.564;2023-02-08T09:45:39;50.80;;;26.55;;
23472;SDS011;11909;52.516;13.564;2023-02-08T09:48:25;51.55;;;26.73;;
23472;SDS011;11909;52.516;13.564;2023-02-08T09:51:02;48.75;;;26.40;;
23472;SDS011;11909;52.516;13.564;2023-02-08T09:53:35;49.65;;;26.45;;
23472;SDS011;11909;52.516;13.564;2023-02-08T09:56:10;51.53;;;26.85;;
23472;SDS011;11909;52.516;13.564;2023-02-08T09:58:42;58.03;;;29.08;;
23472;SDS011;11909;52.516;13.564;2023-02-08T10:01:14;53.22;;;27.77;;
23472;SDS011;11909;52.516;13.564;2023-02-08T10:03:45;52.78;;;25.98;;
23472;SDS011;11909;52.516;13.564;2023-02-08T10:06:16;43.17;;;26.20;;
23472;SDS011;11909;52.516;13.564;2023-02-08T10:08:46;52.47;;;27.60;;
23472;SDS011;11909;52.516;13.564;2023-02-08T10:11:22;56.67;;;27.88;;
23472;SDS011;11909;52.516;13.564;2023-02-08T10:14:03;46.17;;;26.25;;
23472;SDS011;11909;52.516;13.564;2023-02-08T10:19:35;47.92;;;25.65;;
23472;SDS011;11909;52.516;13.564;2023-02-08T10:22:17;48.15;;;25.70;;
23472;SDS011;11909;52.516;13.564;2023-02-08T10:24:57;54.90;;;26.75;;
23472;SDS011;11909;52.516;13.564;2023-02-08T10:27:42;45.28;;;26.35;;
23472;SDS011;11909;52.516;13.564;2023-02-08T10:30:27;47.05;;;25.75;;
23472;SDS011;11909;52.516;13.564;2023-02-08T10:33:05;49.50;;;26.05;;
23472;SDS011;11909;52.516;13.564;2023-02-08T10:35:39;48.22;;;26.60;;
23472;SDS011;11909;52.516;13.564;2023-02-08T10:38:19;48.72;;;26.50;;
23472;SDS011;11909;52.516;13.564;2023-02-08T10:41:00;47.80;;;25.42;;
23472;SDS011;11909;52.516;13.564;2023-02-08T10:43:31;46.78;;;27.27;;
23472;SDS011;11909;52.516;13.564;2023-02-08T10:46:08;44.97;;;25.40;;
23472;SDS011;11909;52.516;13.564;2023-02-08T10:48:48;42.38;;;24.60;;
23472;SDS011;11909;52.516;13.564;2023-02-08T10:51:25;44.05;;;24.55;;
23472;SDS011;11909;52.516;13.564;2023-02-08T10:53:55;51.20;;;25.67;;
23472;SDS011;11909;52.516;13.564;2023-02-08T10:56:32;50.47;;;27.23;;
23472;SDS011;11909;52.516;13.564;2023-02-08T10:59:05;50.30;;;27.27;;
23472;SDS011;11909;52.516;13.564;2023-02-08T11:01:39;43.08;;;25.25;;
23472;SDS011;11909;52.516;13.564;2023-02-08T11:04:08;44.00;;;26.23;;
23472;SDS011;11909;52.516;13.564;2023-02-08T11:06:37;46.53;;;25.25;;
23472;SDS011;11909;52.516;13.564;2023-02-08T11:09:11;47.33;;;25.88;;
23472;SDS011;11909;52.516;13.564;2023-02-08T11:11:47;47.60;;;25.83;;
23472;SDS011;11909;52.516;13.564;2023-02-08T11:14:18;42.85;;;24.25;;
23472;SDS011;11909;52.516;13.564;2023-02-08T11:16:54;42.53;;;24.83;;
23472;SDS011;11909;52.516;13.564;2023-02-08T11:19:29;46.40;;;24.33;;
23472;SDS011;11909;52.516;13.564;2023-02-08T11:22:01;49.95;;;27.10;;
23472;SDS011;11909;52.516;13.564;2023-02-08T11:24:34;46.05;;;26.13;;
23472;SDS011;11909;52.516;13.564;2023-02-08T11:27:14;39.20;;;22.85;;
23472;SDS011;11909;52.516;13.564;2023-02-08T11:29:44;43.95;;;23.00;;
23472;SDS011;11909;52.516;13.564;2023-02-08T11:32:14;47.67;;;25.08;;
23472;SDS011;11909;52.516;13.564;2023-02-08T11:34:43;42.65;;;24.77;;
23472;SDS011;11909;52.516;13.564;2023-02-08T11:37:12;43.03;;;24.65;;
23472;SDS011;11909;52.516;13.564;2023-02-08T11:39:47;42.22;;;23.40;;
23472;SDS011;11909;52.516;13.564;2023-02-08T11:42:19;43.47;;;24.20;;
23472;SDS011;11909;52.516;13.564;2023-02-08T11:44:51;43.58;;;22.80;;
23472;SDS011;11909;52.516;13.564;2023-02-08T11:47:22;41.35;;;22.05;;
23472;SDS011;11909;52.516;13.564;2023-02-08T11:49:52;40.22;;;23.23;;
23472;SDS011;11909;52.516;13.564;2023-02-08T11:52:23;42.33;;;22.42;;
23472;SDS011;11909;52.516;13.564;2023-02-08T11:57:50;41.40;;;22.10;;
23472;SDS011;11909;52.516;13.564;2023-02-08T12:00:21;40.47;;;22.30;;
23472;SDS011;11909;52.516;13.564;2023-02-08T12:02:50;41.75;;;23.77;;
23472;SDS011;11909;52.516;13.564;2023-02-08T12:05:26;50.03;;;26.63;;
23472;SDS011;11909;52.516;13.564;2023-02-08T12:08:03;42.95;;;23.60;;
23472;SDS011;11909;52.516;13.564;2023-02-08T12:10:52;39.10;;;22.52;;
23472;SDS011;11909;52.516;13.564;2023-02-08T12:13:43;41.38;;;23.23;;
23472;SDS011;11909;52.516;13.564;2023-02-08T12:16:29;40.92;;;23.05;;
23472;SDS011;11909;52.516;13.564;2023-02-08T12:19:18;42.35;;;23.30;;
23472;SDS011;11909;52.516;13.564;2023-02-08T12:22:06;38.42;;;22.65;;
23472;SDS011;11909;52.516;13.564;2023-02-08T12:24:41;35.35;;;22.35;;
23472;SDS011;11909;52.516;13.564;2023-02-08T12:27:21;37.33;;;21.52;;
23472;SDS011;11909;52.516;13.564;2023-02-08T12:29:59;41.33;;;24.40;;
23472;SDS011;11909;52.516;13.564;2023-02-08T12:32:44;41.63;;;23.55;;
23472;SDS011;11909;52.516;13.564;2023-02-08T12:38:38;39.60;;;22.80;;
23472;SDS011;11909;52.516;13.564;2023-02-08T12:41:46;38.72;;;22.70;;
23472;SDS011;11909;52.516;13.564;2023-02-08T12:44:37;40.47;;;22.73;;
23472;SDS011;11909;52.516;13.564;2023-02-08T12:47:20;40.05;;;23.98;;
23472;SDS011;11909;52.516;13.564;2023-02-08T12:50:02;54.42;;;27.35;;
23472;SDS011;11909;52.516;13.564;2023-02-08T12:52:41;42.95;;;23.80;;
23472;SDS011;11909;52.516;13.564;2023-02-08T12:55:12;40.58;;;23.42;;
23472;SDS011;11909;52.516;13.564;2023-02-08T12:57:45;38.83;;;23.13;;
23472;SDS011;11909;52.516;13.564;2023-02-08T13:00:20;38.30;;;21.77;;
23472;SDS011;11909;52.516;13.564;2023-02-08T13:02:50;39.38;;;22.42;;
23472;SDS011;11909;52.516;13.564;2023-02-08T13:05:25;38.05;;;22.65;;
23472;SDS011;11909;52.516;13.564;2023-02-08T13:08:00;38.55;;;22.33;;
23472;SDS011;11909;52.516;13.564;2023-02-08T13:10:35;40.08;;;23.67;;
23472;SDS011;11909;52.516;13.564;2023-02-08T13:13:07;41.78;;;23.67;;
23472;SDS011;11909;52.516;13.564;2023-02-08T13:15:42;38.42;;;22.05;;
23472;SDS011;11909;52.516;13.564;2023-02-08T13:18:14;40.00;;;22.05;;
23472;SDS011;11909;52.516;13.564;2023-02-08T13:20:47;38.20;;;21.70;;
23472;SDS011;11909;52.516;13.564;2023-02-08T13:23:19;38.67;;;22.35;;
23472;SDS011;11909;52.516;13.564;2023-02-08T13:25:52;38.85;;;22.90;;
23472;SDS011;11909;52.516;13.564;2023-02-08T13:28:23;38.80;;;21.58;;
23472;SDS011;11909;52.516;13.564;2023-02-08T13:33:27;37.63;;;21.05;;
23472;SDS011;11909;52.516;13.564;2023-02-08T13:35:59;41.50;;;22.33;;
23472;SDS011;11909;52.516;13.564;2023-02-08T13:38:28;36.88;;;21.38;;
23472;SDS011;11909;52.516;13.564;2023-02-08T13:41:02;39.40;;;21.65;;
23472;SDS011;11909;52.516;13.564;2023-02-08T13:43:34;39.17;;;21.67;;
23472;SDS011;11909;52.516;13.564;2023-02-08T13:46:07;36.20;;;21.00;;
23472;SDS011;11909;52.516;13.564;2023-02-08T13:48:40;42.05;;;22.95;;
23472;SDS011;11909;52.516;13.564;2023-02-08T13:54:18;37.58;;;20.60;;
23472;SDS011;11909;52.516;13.564;2023-02-08T13:56:46;39.28;;;21.42;;
23472;SDS011;11909;52.516;13.564;2023-02-08T14:02:26;37.25;;;21.67;;
23472;SDS011;11909;52.516;13.564;2023-02-08T14:07:59;36.30;;;20.85;;
23472;SDS011;11909;52.516;13.564;2023-02-08T14:10:31;34.85;;;21.13;;
23472;SDS011;11909;52.516;13.564;2023-02-08T14:13:04;35.40;;;21.60;;
23472;SDS011;11909;52.516;13.564;2023-02-08T14:15:41;33.92;;;20.10;;
23472;SDS011;11909;52.516;13.564;2023-02-08T14:18:25;32.90;;;20.33;;
23472;SDS011;11909;52.516;13.564;2023-02-08T14:20:59;33.63;;;19.75;;
23472;SDS011;11909;52.516;13.564;2023-02-08T14:23:29;33.95;;;20.00;;
23472;SDS011;11909;52.516;13.564;2023-02-08T14:26:01;35.22;;;21.25;;
23472;SDS011;11909;52.516;13.564;2023-02-08T14:28:35;34.45;;;20.35;;
23472;SDS011;11909;52.516;13.564;2023-02-08T14:31:06;36.88;;;22.00;;
23472;SDS011;11909;52.516;13.564;2023-02-08T14:33:38;41.40;;;23.98;;
23472;SDS011;11909;52.516;13.564;2023-02-08T14:36:18;33.08;;;20.08;;
23472;SDS011;11909;52.516;13.564;2023-02-08T14:38:52;36.95;;;19.77;;
23472;SDS011;11909;52.516;13.564;2023-02-08T14:41:42;32.38;;;20.63;;
23472;SDS011;11909;52.516;13.564;2023-02-08T14:50:37;34.75;;;19.83;;
23472;SDS011;11909;52.516;13.564;2023-02-08T14:53:14;32.85;;;20.02;;
23472;SDS011;11909;52.516;13.564;2023-02-08T14:55:47;33.72;;;20.00;;
23472;SDS011;11909;52.516;13.564;2023-02-08T14:58:21;34.70;;;20.42;;
23472;SDS011;11909;52.516;13.564;2023-02-08T15:00:53;34.20;;;20.48;;
23472;SDS011;11909;52.516;13.564;2023-02-08T15:03:24;32.22;;;20.38;;
23472;SDS011;11909;52.516;13.564;2023-02-08T15:06:00;33.03;;;20.00;;
23472;SDS011;11909;52.516;13.564;2023-02-08T15:08:38;32.92;;;19.27;;
23472;SDS011;11909;52.516;13.564;2023-02-08T15:11:14;36.67;;;21.48;;
23472;SDS011;11909;52.516;13.564;2023-02-08T15:13:47;33.20;;;21.00;;
23472;SDS011;11909;52.516;13.564;2023-02-08T15:16:16;36.17;;;21.52;;
23472;SDS011;11909;52.516;13.564;2023-02-08T15:18:44;36.78;;;20.45;;
23472;SDS011;11909;52.516;13.564;2023-02-08T15:21:16;34.65;;;19.73;;